Time;durP1;ratioP1;P1;durP2;ratioP2;P2;SDS_P1;SDS_P2;PMS_P1;PMS_P2;Temp;Humidity;BMP_temperature;BMP_pressure;BME280_temperature;BME280_humidity;BME280_pressure;Samples;Min_cycle;Max_cycle;Signal;HPM_P1;HPM_P2
2023/07/17 00:00:54;;;;;;;9.20;7.80;;;;;;;20.59;69.78;98698.11;435409;1255;111962;-41
2023/07/17 00:11:21;;;;;;;11.10;8.20;;;;;;;20.67;70.34;98677.66;434937;1251;470505;-42
2023/07/17 00:21:28;;;;;;;13.20;9.20;;;;;;;20.66;70.96;98684.18;435264;1257;98707;-43
2023/07/17 00:31:36;;;;;;;9.70;8.60;;;;;;;20.72;71.07;98683.86;435311;1251;108654;-42
2023/07/17 00:41:43;;;;;;;14.70;10.00;;;;;;;20.64;71.45;98683.46;435241;1258;99894;-41
2023/07/17 00:51:52;;;;;;;12.40;10.00;;;;;;;20.71;71.56;98695.15;435330;1251;111848;-42
2023/07/17 01:01:59;;;;;;;11.10;9.90;;;;;;;20.64;71.80;98677.35;435390;1257;106320;-41
2023/07/17 01:12:08;;;;;;;11.50;9.30;;;;;;;20.63;72.34;98677.63;435279;1256;99240;-41
2023/07/17 01:22:14;;;;;;;10.80;9.30;;;;;;;20.80;72.44;98681.03;435707;1257;106814;-42
2023/07/17 01:32:21;;;;;;;12.10;8.80;;;;;;;20.92;72.74;98674.86;434933;1256;98827;-42
2023/07/17 01:42:27;;;;;;;14.50;10.60;;;;;;;20.99;72.69;98648.08;435028;1256;111209;-41
2023/07/17 01:52:34;;;;;;;11.20;10.00;;;;;;;20.95;72.94;98634.66;435210;1254;108276;-43
2023/07/17 02:02:41;;;;;;;11.60;9.90;;;;;;;21.10;73.16;98666.75;435239;1254;98718;-44
2023/07/17 02:12:48;;;;;;;12.50;9.00;;;;;;;21.25;73.13;98684.59;435097;1257;107408;-41
2023/07/17 02:22:55;;;;;;;10.90;9.40;;;;;;;21.22;73.04;98693.58;435338;1254;99228;-42
2023/07/17 02:33:03;;;;;;;10.40;9.50;;;;;;;21.07;72.96;98696.16;435242;1253;111900;-42
2023/07/17 02:43:10;;;;;;;12.90;9.80;;;;;;;21.01;73.14;98694.16;435170;1257;107602;-43
2023/07/17 02:53:16;;;;;;;9.60;8.20;;;;;;;20.92;73.32;98699.33;435119;1267;99215;-44
2023/07/17 03:03:23;;;;;;;10.60;9.50;;;;;;;20.99;73.67;98707.88;435203;1255;108551;-42
2023/07/17 03:23:37;;;;;;;10.90;8.90;;;;;;;21.23;73.62;98726.52;435272;1257;111566;-44
2023/07/17 03:33:44;;;;;;;12.10;9.10;;;;;;;21.25;73.86;98749.08;435120;1267;108579;-41
2023/07/17 03:43:50;;;;;;;;;;;;;;;21.44;73.76;98766.02;435303;1255;99213;-43
2023/07/17 03:53:56;;;;;;;12.90;10.00;;;;;;;21.41;74.00;98786.48;435380;1254;108323;-46
2023/07/17 04:04:02;;;;;;;12.70;9.30;;;;;;;21.53;74.00;98790.41;435198;1254;99247;-43
2023/07/17 04:24:15;;;;;;;10.30;7.10;;;;;;;23.40;73.11;98770.29;435179;1254;108158;-41
2023/07/17 04:34:23;;;;;;;7.60;6.50;;;;;;;23.36;72.44;98769.72;435245;1254;98711;-43
2023/07/17 04:44:30;;;;;;;7.20;6.50;;;;;;;23.08;72.25;98773.23;435232;1252;109331;-41
2023/07/17 04:54:37;;;;;;;9.30;4.30;;;;;;;22.69;72.34;98883.83;435210;1255;99321;-42
2023/07/17 05:04:44;;;;;;;9.00;4.60;;;;;;;21.77;72.85;98895.59;435230;1256;113452;-43
2023/07/17 05:14:52;;;;;;;7.90;4.50;;;;;;;21.05;73.27;98908.73;435090;1254;106468;-45
2023/07/17 05:24:58;;;;;;;7.20;5.30;;;;;;;20.45;74.04;98901.25;435368;1257;99283;-44
2023/07/17 05:55:18;;;;;;;6.10;4.60;;;;;;;19.96;75.79;98781.23;435246;1257;111946;-44
2023/07/17 06:15:32;;;;;;;10.60;5.90;;;;;;;19.77;78.77;98761.65;435215;1256;99221;-43
2023/07/17 06:25:39;;;;;;;8.60;5.30;;;;;;;19.86;79.45;98730.13;435175;1257;109417;-44
2023/07/17 06:35:46;;;;;;;9.00;4.70;;;;;;;20.35;79.73;98714.30;435194;1253;99289;-43
2023/07/17 06:45:53;;;;;;;13.30;8.10;;;;;;;21.04;79.08;98704.21;435143;1256;111807;-43
2023/07/17 06:56:03;;;;;;;10.40;6.90;;;;;;;21.56;78.70;98697.20;435275;1256;108422;-43
2023/07/17 07:06:10;;;;;;;16.70;8.80;;;;;;;21.86;78.19;98698.30;435312;1252;99239;-44
2023/07/17 07:16:17;;;;;;;23.20;13.00;;;;;;;22.08;77.77;98729.52;435262;1254;108283;-44
2023/07/17 07:26:25;;;;;;;21.10;9.30;;;;;;;22.52;77.51;98771.31;435331;1254;97991;-43
2023/07/17 07:36:31;;;;;;;;;;;;;;;22.81;76.88;98778.00;435280;1256;112936;-43
2023/07/17 07:46:38;;;;;;;11.00;7.00;;;;;;;22.84;76.68;98771.59;435470;1253;106700;-43
2023/07/17 07:56:45;;;;;;;7.40;5.70;;;;;;;22.94;76.55;98779.54;435343;1256;99215;-43
2023/07/17 08:06:51;;;;;;;13.60;5.90;;;;;;;23.20;76.22;98779.85;435204;1256;108886;-44
2023/07/17 08:16:58;;;;;;;12.70;6.70;;;;;;;23.40;75.97;98785.39;435204;1256;99106;-43
2023/07/17 08:27:06;;;;;;;10.90;5.60;;;;;;;23.48;75.75;98802.77;435480;1256;111073;-41
2023/07/17 08:37:13;;;;;;;7.40;5.20;;;;;;;23.62;75.56;98797.91;435262;1254;107994;-42
2023/07/17 08:47:21;;;;;;;6.30;4.70;;;;;;;23.64;75.10;98798.27;435158;1254;99202;-41
2023/07/17 08:57:27;;;;;;;8.30;4.20;;;;;;;24.07;74.60;98800.27;435256;1252;108789;-41
2023/07/17 09:07:35;;;;;;;5.00;4.40;;;;;;;24.24;74.02;98795.88;435177;1264;99232;-43
2023/07/17 09:17:42;;;;;;;5.80;4.90;;;;;;;24.40;73.65;98820.51;435251;1253;110786;-45
2023/07/17 09:27:51;;;;;;;5.00;4.50;;;;;;;24.32;72.67;98821.23;435106;1254;108409;-41
2023/07/17 09:37:59;;;;;;;4.30;3.90;;;;;;;24.04;72.62;98812.13;435218;1253;99224;-42
2023/07/17 09:48:07;;;;;;;5.10;4.30;;;;;;;24.42;72.64;98807.69;435204;1257;108260;-42
2023/07/17 09:58:17;;;;;;;5.30;4.40;;;;;;;24.66;71.89;98794.20;435274;1256;97932;-44
2023/07/17 10:08:28;;;;;;;8.30;5.20;;;;;;;24.68;71.79;98791.44;435160;1254;111053;-42
2023/07/17 10:18:35;;;;;;;6.70;4.50;;;;;;;24.31;71.35;98779.46;435292;1256;107984;-41
2023/07/17 10:28:44;;;;;;;5.70;4.90;;;;;;;23.80;71.68;98766.19;435336;1254;98824;-43
2023/07/17 10:38:49;;;;;;;6.10;4.30;;;;;;;23.92;72.07;98764.34;435209;1256;108570;-43
2023/07/17 10:59:11;;;;;;;6.30;5.00;;;;;;;25.54;71.28;98744.88;435343;1256;111139;-42
2023/07/17 11:09:17;;;;;;;8.70;4.90;;;;;;;25.71;70.50;98770.33;435054;1252;109461;-42
2023/07/17 11:19:25;;;;;;;7.00;4.40;;;;;;;25.78;70.16;98777.83;435371;1253;99563;-42
2023/07/17 11:29:36;;;;;;;5.00;4.50;;;;;;;25.84;69.86;98776.15;435354;1256;109338;-42
2023/07/17 11:39:41;;;;;;;8.40;4.30;;;;;;;25.58;69.26;98763.45;435190;1253;99239;-46
2023/07/17 11:49:53;;;;;;;5.80;5.30;;;;;;;25.22;69.46;98758.15;435351;1256;111381;-43
2023/07/17 12:00:02;;;;;;;8.90;5.60;;;;;;;24.86;69.91;98763.50;435229;1254;107947;-42
2023/07/17 12:10:11;;;;;;;7.50;6.00;;;;;;;24.42;70.69;98743.52;434875;1253;484899;-41
2023/07/17 12:30:23;;;;;;;6.20;5.60;;;;;;;24.73;71.48;98748.07;435238;1256;99324;-44
2023/07/17 12:40:30;;;;;;;9.00;6.10;;;;;;;24.86;71.51;98747.11;435281;1256;110401;-42
2023/07/17 12:50:37;;;;;;;8.10;7.30;;;;;;;24.78;71.38;98739.38;435220;1253;108406;-41
2023/07/17 13:00:44;;;;;;;9.10;7.10;;;;;;;24.69;71.42;98730.07;435158;1253;99212;-43
2023/07/17 13:10:48;;;;;;;6.60;6.00;;;;;;;24.91;71.61;98740.96;435169;1256;108445;-43
2023/07/17 13:20:55;;;;;;;9.10;8.30;;;;;;;25.00;71.89;98749.10;435252;1257;99307;-41
2023/07/17 13:31:01;;;;;;;9.50;8.40;;;;;;;24.87;71.55;98728.45;435319;1254;111519;-43
2023/07/17 13:41:38;;;;;;;10.00;8.20;;;;;;;24.91;71.70;98717.38;435006;1254;108845;-44
2023/07/17 14:01:52;;;;;;;8.90;8.10;;;;;;;25.32;71.60;98667.93;435405;1256;109517;-43
2023/07/17 14:12:00;;;;;;;10.30;7.90;;;;;;;25.25;71.53;98666.27;435335;1253;99258;-44
2023/07/17 14:22:07;;;;;;;6.70;5.60;;;;;;;25.08;70.96;98677.95;435448;1254;112025;-43
2023/07/17 14:32:14;;;;;;;5.50;5.00;;;;;;;25.01;70.74;98681.44;435069;1254;109166;-42
2023/07/17 14:42:20;;;;;;;7.40;5.90;;;;;;;24.72;69.77;98682.13;435133;1256;98100;-44
2023/07/17 14:52:28;;;;;;;7.70;4.90;;;;;;;24.55;69.56;98673.59;435322;1255;108254;-44
2023/07/17 15:02:34;;;;;;;6.60;5.20;;;;;;;24.63;69.71;98654.38;435177;1256;98364;-44
2023/07/17 15:12:41;;;;;;;7.50;5.50;;;;;;;24.53;69.39;98644.21;435372;1257;110507;-43
2023/07/17 15:22:48;;;;;;;5.40;4.20;;;;;;;24.46;69.38;98639.46;434916;1257;109961;-43
2023/07/17 15:43:02;;;;;;;6.80;5.90;;;;;;;24.21;70.04;98627.86;434960;1256;107890;-43
2023/07/17 15:53:12;;;;;;;8.20;5.80;;;;;;;24.66;69.86;98640.84;435025;1256;99249;-44
2023/07/17 16:13:26;;;;;;;7.60;4.70;;;;;;;24.02;69.54;98656.67;435101;1267;107842;-44
2023/07/17 16:23:31;;;;;;;;;;;;;;;23.90;69.84;98663.85;435043;1256;98075;-43
2023/07/17 16:33:38;;;;;;;6.50;5.90;;;;;;;23.75;70.22;98660.17;435336;1257;108339;-44
2023/07/17 16:43:45;;;;;;;8.50;6.80;;;;;;;23.67;70.41;98644.77;435256;1254;97976;-42
2023/07/17 16:53:53;;;;;;;13.00;7.00;;;;;;;23.83;71.31;98640.86;435191;1256;111755;-45
2023/07/17 17:14:04;;;;;;;9.80;8.80;;;;;;;24.12;71.72;98645.71;435308;1257;98705;-42
2023/07/17 17:34:17;;;;;;;;;;;;;;;24.16;72.30;98636.25;435316;1266;99234;-44
2023/07/17 17:44:25;;;;;;;17.70;12.70;;;;;;;24.01;72.91;98634.98;435066;1256;111189;-43
2023/07/17 17:54:31;;;;;;;;;;;;;;;23.72;73.09;98639.73;435378;1254;108389;-42
2023/07/17 18:04:38;;;;;;;16.30;14.70;;;;;;;23.29;73.81;98634.85;435187;1253;99250;-42
2023/07/17 18:14:45;;;;;;;16.50;14.70;;;;;;;22.96;74.53;98627.14;435121;1272;108506;-42
2023/07/17 18:24:52;;;;;;;18.10;15.20;;;;;;;22.94;75.41;98619.77;435195;1256;98599;-41
2023/07/17 18:35:00;;;;;;;18.50;15.80;;;;;;;22.80;75.53;98611.58;435251;1266;111121;-43
2023/07/17 18:45:08;;;;;;;17.50;15.70;;;;;;;22.49;76.31;98604.23;435252;1266;109190;-44
2023/07/17 18:55:13;;;;;;;18.00;15.10;;;;;;;22.10;76.71;98603.16;435339;1254;97895;-42
2023/07/17 19:05:21;;;;;;;17.00;15.40;;;;;;;21.76;77.41;98594.67;435241;1256;108470;-49
2023/07/17 19:15:28;;;;;;;17.20;15.60;;;;;;;21.50;77.84;98589.11;435123;1254;99237;-44
2023/07/17 19:25:34;;;;;;;17.60;15.70;;;;;;;21.30;78.34;98588.40;435149;1257;112239;-43
2023/07/17 19:35:40;;;;;;;15.90;14.30;;;;;;;21.17;78.69;98604.23;435154;1267;108412;-43
2023/07/17 19:45:47;;;;;;;19.70;16.10;;;;;;;20.97;78.71;98609.66;435133;1257;99215;-43
2023/07/17 19:55:56;;;;;;;20.50;18.60;;;;;;;20.70;78.96;98605.34;435183;1266;108434;-43
2023/07/17 20:16:08;;;;;;;20.60;18.40;;;;;;;20.52;80.13;98610.15;435102;1266;112924;-42
2023/07/17 20:26:16;;;;;;;23.10;19.50;;;;;;;20.44;80.23;98616.68;435194;1263;107938;-41
2023/07/17 20:36:27;;;;;;;22.30;20.10;;;;;;;20.27;80.77;98620.42;435209;1254;99234;-43
2023/07/17 20:46:35;;;;;;;23.10;19.50;;;;;;;20.18;81.14;98622.19;435224;1257;108199;-42
2023/07/17 20:56:43;;;;;;;26.40;20.10;;;;;;;20.10;81.60;98621.98;434875;1266;99224;-42
2023/07/17 21:06:50;;;;;;;21.20;19.10;;;;;;;20.14;81.96;98629.77;435110;1265;112953;-42
2023/07/17 21:16:58;;;;;;;21.40;18.40;;;;;;;20.15;81.99;98634.95;435270;1256;107644;-42
2023/07/17 21:27:04;;;;;;;20.80;18.80;;;;;;;19.98;82.03;98626.63;435296;1255;99256;-43
2023/07/17 21:37:11;;;;;;;21.10;19.00;;;;;;;19.86;82.50;98627.76;435204;1257;105904;-42
2023/07/17 21:47:17;;;;;;;;;;;;;;;19.81;82.53;98631.41;435113;1256;99250;-42
2023/07/17 21:57:25;;;;;;;24.10;18.70;;;;;;;19.67;82.61;98631.94;435228;1256;111890;-42
2023/07/17 22:27:46;;;;;;;19.00;17.00;;;;;;;19.78;83.03;98635.10;434903;1257;107748;-41
2023/07/17 22:37:53;;;;;;;20.00;16.40;;;;;;;19.89;82.93;98638.29;435048;1257;99228;-42
2023/07/17 22:48:00;;;;;;;21.40;17.50;;;;;;;19.84;82.65;98631.01;435061;1257;112678;-43
2023/07/17 22:58:07;;;;;;;17.50;15.30;;;;;;;19.63;82.55;98627.21;435100;1254;109336;-42
2023/07/17 23:18:22;;;;;;;21.40;16.40;;;;;;;19.35;82.79;98634.12;435066;1255;106882;-44
2023/07/17 23:28:28;;;;;;;20.20;16.30;;;;;;;19.27;82.93;98634.81;435167;1257;99266;-42
2023/07/17 23:48:42;;;;;;;19.00;15.70;;;;;;;19.37;83.39;98635.23;435249;1258;108088;-41
2023/07/17 23:58:49;;;;;;;18.40;16.10;;;;;;;19.42;83.52;98650.23;435198;1256;99249;-41
